Date,TemperatureHighF,TemperatureAvgF,TemperatureLowF,DewpointHighF,DewpointAvgF,DewpointLowF,HumidityHigh,HumidityAvg,HumidityLow,PressureMaxIn,PressureMinIn,WindSpeedMaxMPH,WindSpeedAvgMPH,GustSpeedMaxMPH,PrecipitationSumIn
2013-2-1,39,26,20,32,11,2,91,54,39,30.43,29.82,30,6,31,0.00
2013-2-2,34,25,15,28,17,6,87,71,45,30.42,30.05,13,2,13,0.00
2013-2-3,41,35,31,29,24,18,85,65,53,30.05,29.87,28,7,33,0.00
2013-2-4,40,32,24,25,19,14,72,60,49,30.16,29.97,21,3,21,0.00
2013-2-5,52,43,32,38,32,24,84,66,53,29.98,29.91,20,4,20,0.00
2013-2-6,54,45,36,36,29,25,85,55,35,30.33,29.96,20,3,20,0.00
2013-2-7,39,36,33,32,30,26,95,77,66,30.40,30.14,12,2,15,0.00
2013-2-8,52,38,33,42,32,25,98,82,58,30.14,29.84,36,6,36,0.49
2013-2-9,49,38,31,26,18,14,66,46,27,30.39,30.07,39,8,39,0.00
2013-2-10,47,37,28,35,21,15,91,53,37,30.51,30.24,13,2,14,0.06
2013-2-11,62,49,37,51,40,24,98,76,32,30.24,29.88,29,4,31,0.04
2013-2-12,58,49,42,28,24,18,51,38,24,30.05,29.91,32,6,32,0.00
2013-2-13,45,42,39,42,36,26,98,83,47,29.95,29.64,25,2,25,0.15
2013-2-14,52,41,34,32,28,25,79,60,39,30.08,29.84,15,3,17,0.00
2013-2-15,59,43,30,40,32,26,93,68,35,30.10,29.92,21,3,23,0.00
2013-2-16,39,35,28,30,21,13,69,57,45,30.02,29.86,25,5,25,0.00
2013-2-17,30,25,20,18,7,3,71,46,32,30.29,29.94,28,8,28,0.00
2013-2-18,51,35,15,25,17,6,78,49,30,30.42,30.19,14,2,15,0.00
2013-2-19,54,42,35,41,27,15,88,58,29,30.20,29.80,29,5,29,0.01
2013-2-20,44,36,31,17,12,9,49,38,25,30.19,29.96,28,8,28,0.00
2013-2-21,50,38,27,20,16,13,57,41,26,30.31,30.15,17,3,17,0.00
2013-2-22,41,34,30,30,26,18,82,71,45,30.37,30.17,15,2,15,0.01
2013-2-23,53,41,34,43,36,30,94,83,67,30.19,29.82,8,1,8,0.02
2013-2-24,55,46,39,41,30,21,97,56,29,30.09,29.82,24,5,24,0.00
2013-2-25,42,35,28,25,23,21,80,61,47,30.24,30.09,11,2,11,0.00
2013-2-26,41,36,31,40,31,21,98,83,61,30.22,29.65,22,3,22,0.87
2013-2-27,50,45,39,41,35,32,99,68,53,29.78,29.61,24,5,24,0.00
2013-2-28,41,39,37,34,28,24,75,64,53,29.86,29.69,24,5,24,0.00